Time;durP1;ratioP1;P1;durP2;ratioP2;P2;SDS_P1;SDS_P2;PMS_P1;PMS_P2;Temp;Humidity;BMP_temperature;BMP_pressure;BME280_temperature;BME280_humidity;BME280_pressure;Samples;Min_cycle;Max_cycle;Signal;HPM_P1;HPM_P2
2021/01/30 00:00:45;;;;;;;2.22;1.50;;;7.10;92.70;;;;;;6257847;28;20032;-85
2021/01/30 00:03:46;;;;;;;3.92;1.70;;;7.20;99.90;;;;;;6258293;28;20035;-85
2021/01/30 00:06:52;;;;;;;2.88;1.67;;;6.80;99.90;;;;;;6259286;28;20028;-89
2021/01/30 00:09:53;;;;;;;4.28;1.63;;;7.10;99.00;;;;;;6267060;28;20482;-87
2021/01/30 00:12:53;;;;;;;2.45;1.40;;;7.10;99.90;;;;;;6258582;28;20021;-86
2021/01/30 00:15:54;;;;;;;3.67;1.73;;;7.20;99.90;;;;;;6258112;28;20059;-87
2021/01/30 00:18:55;;;;;;;5.78;1.77;;;7.10;99.90;;;;;;6259034;28;20060;-87
2021/01/30 00:22:00;;;;;;;2.58;1.60;;;6.90;98.60;;;;;;6275685;28;20036;-90
2021/01/30 00:25:00;;;;;;;3.63;1.70;;;7.10;99.90;;;;;;6263759;28;20428;-85
2021/01/30 00:28:01;;;;;;;3.83;1.83;;;6.70;99.90;;;;;;6263156;28;20025;-87
2021/01/30 00:31:02;;;;;;;9.70;2.60;;;;;;;;;;6263220;28;20036;-85
2021/01/30 00:34:03;;;;;;;5.95;2.25;;;6.70;99.90;;;;;;6279657;28;20028;-85
2021/01/30 00:37:10;;;;;;;5.53;2.22;;;6.80;95.70;;;;;;6263119;28;20032;-87
2021/01/30 00:40:11;;;;;;;9.10;3.55;;;6.80;99.90;;;;;;6278988;28;20493;-88
2021/01/30 00:43:12;;;;;;;5.70;2.72;;;;;;;;;;6263026;28;20060;-89
2021/01/30 00:46:13;;;;;;;6.78;2.60;;;;;;;;;;6279590;28;20128;-86
2021/01/30 00:49:14;;;;;;;6.88;2.58;;;6.90;99.90;;;;;;6278731;28;20040;-86
2021/01/30 00:52:19;;;;;;;6.00;2.92;;;6.90;96.90;;;;;;6262774;28;20096;-89
2021/01/30 00:55:20;;;;;;;11.13;3.20;;;;;;;;;;6262508;28;20490;-86
2021/01/30 00:58:21;;;;;;;5.22;2.33;;;;;;;;;;6279228;28;20025;-86
2021/01/30 01:01:22;;;;;;;6.07;2.63;;;7.00;96.20;;;;;;6279086;28;20029;-86
2021/01/30 01:04:22;;;;;;;5.72;2.90;;;6.80;92.90;;;;;;6262316;28;20055;-87
2021/01/30 01:07:23;;;;;;;8.05;2.50;;;6.70;92.10;;;;;;6262493;28;20031;-88
2021/01/30 01:10:24;;;;;;;7.53;2.55;;;6.80;91.50;;;;;;6262623;28;20382;-87
2021/01/30 01:13:25;;;;;;;8.75;3.00;;;6.80;91.90;;;;;;6262598;28;20029;-86
2021/01/30 01:16:26;;;;;;;9.20;3.63;;;6.70;91.30;;;;;;6278751;28;20028;-86
2021/01/30 01:19:27;;;;;;;7.47;2.78;;;;;;;;;;6262399;28;20040;-87
2021/01/30 01:22:27;;;;;;;10.45;2.47;;;6.80;89.30;;;;;;6278704;28;20123;-88
2021/01/30 01:25:28;;;;;;;5.25;2.22;;;6.70;90.60;;;;;;6262027;28;20028;-88
2021/01/30 01:28:29;;;;;;;5.90;2.42;;;6.70;90.10;;;;;;6261771;28;20024;-88
2021/01/30 01:31:29;;;;;;;8.05;2.72;;;6.70;90.00;;;;;;6262553;28;20021;-88
2021/01/30 01:34:30;;;;;;;8.95;2.90;;;6.80;90.20;;;;;;6261654;28;20054;-85
2021/01/30 01:37:31;;;;;;;7.88;2.40;;;6.50;90.00;;;;;;6278533;28;20028;-86
2021/01/30 01:40:37;;;;;;;9.75;2.47;;;6.70;89.70;;;;;;6261066;28;20066;-90
2021/01/30 01:43:38;;;;;;;6.50;2.40;;;7.20;87.00;;;;;;6262201;28;20024;-88
2021/01/30 01:46:39;;;;;;;9.13;2.95;;;6.60;89.10;;;;;;6262232;28;20394;-87
2021/01/30 01:49:40;;;;;;;6.05;2.50;;;6.70;89.10;;;;;;6261103;28;20036;-90
2021/01/30 01:52:40;;;;;;;9.55;2.47;;;6.60;88.80;;;;;;6261410;28;20029;-86
2021/01/30 01:55:43;;;;;;;10.15;3.03;;;6.70;86.70;;;;;;6261068;28;20071;-88
2021/01/30 01:58:45;;;;;;;10.48;3.47;;;6.60;87.40;;;;;;6261419;28;20029;-92
2021/01/30 02:01:45;;;;;;;9.50;3.05;;;6.70;89.90;;;;;;6277770;28;20528;-89
2021/01/30 02:05:10;;;;;;;11.18;3.50;;;6.60;90.40;;;;;;6277347;28;20032;-87
2021/01/30 02:08:12;;;;;;;12.15;3.70;;;7.00;90.70;;;;;;6269519;28;20122;-86
2021/01/30 02:11:13;;;;;;;7.75;2.88;;;6.70;90.80;;;;;;6260745;28;20549;-89
2021/01/30 02:14:13;;;;;;;8.80;2.83;;;6.90;91.30;;;;;;6260938;28;20032;-88
2021/01/30 02:17:37;;;;;;;9.73;2.90;;;6.80;91.20;;;;;;6260858;28;20029;-89
2021/01/30 02:21:01;;;;;;;7.43;2.80;;;6.80;90.00;;;;;;6263556;28;20043;-89
2021/01/30 02:24:17;;;;;;;12.57;3.08;;;6.80;90.00;;;;;;6266504;28;20034;-90
2021/01/30 02:27:34;;;;;;;11.48;3.33;;;7.00;90.50;;;;;;6260954;28;20047;-86
2021/01/30 02:31:01;;;;;;;12.32;2.92;;;6.90;89.20;;;;;;6293894;28;20498;-86
2021/01/30 02:34:05;;;;;;;12.85;3.63;;;6.90;89.90;;;;;;6277064;28;20043;-86
2021/01/30 02:37:16;;;;;;;12.57;3.13;;;7.10;97.00;;;;;;6293768;28;20095;-91
2021/01/30 02:40:19;;;;;;;10.52;3.25;;;6.90;90.10;;;;;;6276880;28;20067;-86
2021/01/30 02:43:21;;;;;;;13.70;3.55;;;7.10;95.60;;;;;;6260322;28;20424;-86
2021/01/30 02:46:25;;;;;;;8.18;3.47;;;6.90;89.70;;;;;;6275828;28;20032;-87
2021/01/30 02:49:30;;;;;;;12.05;3.20;;;8.50;90.50;;;;;;6259829;28;20033;-87
2021/01/30 02:52:31;;;;;;;10.50;3.00;;;7.00;90.00;;;;;;6276679;28;20473;-86
2021/01/30 02:55:32;;;;;;;10.07;3.05;;;7.00;90.00;;;;;;6259357;28;20025;-87
2021/01/30 02:58:38;;;;;;;12.23;2.70;;;7.00;90.30;;;;;;6259514;28;20028;-87
2021/01/30 03:01:39;;;;;;;11.07;3.17;;;6.90;90.20;;;;;;6259769;28;20070;-89
2021/01/30 03:04:39;;;;;;;5.85;2.92;;;7.00;90.40;;;;;;6276292;28;20032;-90
2021/01/30 03:08:14;;;;;;;12.52;3.60;;;7.00;90.30;;;;;;6259873;28;20499;-90
2021/01/30 03:11:18;;;;;;;8.88;4.25;;;7.10;88.70;;;;;;6276515;28;20063;-86
2021/01/30 03:14:20;;;;;;;9.75;3.13;;;7.00;89.60;;;;;;6259614;28;20039;-87
2021/01/30 03:17:21;;;;;;;;;;;7.00;90.00;;;;;;6259847;28;20585;-89
2021/01/30 03:20:21;;;;;;;11.20;3.20;;;7.10;90.30;;;;;;6276267;28;19908;-90
2021/01/30 03:23:22;;;;;;;9.15;2.80;;;8.80;91.10;;;;;;6276004;28;20081;-86
2021/01/30 03:26:24;;;;;;;8.65;3.17;;;7.00;90.60;;;;;;6259373;28;20028;-87
2021/01/30 03:29:25;;;;;;;11.10;2.92;;;;;;;;;;6276243;28;20035;-86
2021/01/30 03:32:27;;;;;;;9.68;3.28;;;7.10;89.50;;;;;;6276123;28;20099;-86
2021/01/30 03:35:28;;;;;;;12.93;3.60;;;7.20;90.40;;;;;;6259532;28;20777;-87
2021/01/30 03:38:29;;;;;;;16.00;3.30;;;7.00;90.60;;;;;;6259158;28;20103;-88
2021/01/30 03:41:29;;;;;;;11.20;2.95;;;7.10;90.50;;;;;;6258461;28;20056;-87
2021/01/30 03:44:30;;;;;;;12.88;3.22;;;;;;;;;;6259037;28;20390;-86
2021/01/30 03:47:31;;;;;;;14.35;3.72;;;7.20;87.80;;;;;;6275384;28;20025;-85
2021/01/30 03:50:32;;;;;;;13.20;3.30;;;;;;;;;;6258944;28;20086;-86
2021/01/30 03:53:32;;;;;;;15.00;4.70;;;7.20;96.50;;;;;;6275810;28;20487;-87
2021/01/30 03:56:33;;;;;;;14.48;3.58;;;7.20;96.20;;;;;;6259835;28;20028;-86
2021/01/30 03:59:34;;;;;;;14.43;4.53;;;7.30;99.90;;;;;;6264096;28;20021;-90
2021/01/30 04:02:34;;;;;;;12.55;3.50;;;7.30;99.90;;;;;;6263539;28;20131;-86
2021/01/30 04:05:35;;;;;;;16.60;3.60;;;7.50;99.90;;;;;;6281066;28;20028;-89
2021/01/30 04:08:35;;;;;;;15.07;3.95;;;7.20;90.00;;;;;;6263960;28;20403;-87
2021/01/30 04:11:38;;;;;;;14.18;3.83;;;7.20;96.10;;;;;;6264088;28;20041;-87
2021/01/30 04:14:39;;;;;;;12.95;3.70;;;7.50;97.60;;;;;;6264314;28;20079;-88
2021/01/30 04:17:40;;;;;;;15.40;5.03;;;7.30;98.90;;;;;;6280382;28;20028;-88
2021/01/30 04:20:41;;;;;;;16.52;4.60;;;;;;;;;;6263488;28;20040;-87
2021/01/30 04:23:45;;;;;;;12.02;3.92;;;7.10;99.90;;;;;;6280152;28;20033;-85
2021/01/30 04:26:47;;;;;;;16.70;3.60;;;7.30;95.30;;;;;;6263244;28;20115;-87
2021/01/30 04:29:48;;;;;;;11.18;3.65;;;7.20;99.90;;;;;;6263075;28;20417;-89
2021/01/30 04:32:49;;;;;;;13.30;3.30;;;;;;;;;;6263052;28;20029;-86
2021/01/30 04:35:50;;;;;;;11.38;4.57;;;;;;;;;;6279587;28;20432;-85
2021/01/30 04:38:50;;;;;;;10.45;3.15;;;7.10;99.70;;;;;;6296308;28;20036;-86
2021/01/30 04:41:56;;;;;;;12.07;4.03;;;7.60;95.80;;;;;;6262602;28;20048;-90
2021/01/30 04:45:12;;;;;;;13.88;3.60;;;7.20;93.20;;;;;;6279592;28;20037;-86
2021/01/30 04:48:31;;;;;;;15.55;3.58;;;7.30;85.80;;;;;;6263952;28;20028;-87
2021/01/30 04:52:09;;;;;;;12.60;3.80;;;7.30;86.50;;;;;;6281762;28;20025;-86
2021/01/30 04:55:14;;;;;;;16.48;5.53;;;7.30;86.30;;;;;;6295636;28;20035;-86
2021/01/30 04:58:54;;;;;;;12.85;4.30;;;7.20;88.10;;;;;;6279599;28;20036;-87
2021/01/30 05:02:04;;;;;;;12.77;3.95;;;7.30;85.40;;;;;;6213528;28;20042;-86
2021/01/30 05:05:05;;;;;;;13.80;4.20;;;7.20;86.40;;;;;;6184970;28;20070;-88
2021/01/30 05:08:27;;;;;;;22.40;5.28;;;7.20;96.00;;;;;;6261648;28;20090;-87
2021/01/30 05:11:28;;;;;;;15.52;4.45;;;7.20;88.10;;;;;;6280794;28;20036;-87
2021/01/30 05:14:31;;;;;;;10.27;4.07;;;7.20;86.40;;;;;;6262023;28;20040;-87
2021/01/30 05:17:35;;;;;;;8.18;3.85;;;7.30;99.90;;;;;;6262523;28;20035;-86
2021/01/30 05:20:37;;;;;;;20.10;4.32;;;7.10;99.90;;;;;;6262480;28;20041;-88
2021/01/30 05:23:39;;;;;;;19.27;5.00;;;;;;;;;;6278599;28;20028;-87
2021/01/30 05:26:42;;;;;;;12.93;3.70;;;7.10;92.90;;;;;;6278834;28;20028;-89
2021/01/30 05:30:05;;;;;;;16.00;3.72;;;7.20;94.10;;;;;;6295233;28;20035;-88
2021/01/30 05:33:33;;;;;;;12.43;3.88;;;7.20;87.30;;;;;;6278576;28;20033;-91
2021/01/30 05:36:40;;;;;;;14.13;3.92;;;7.10;86.60;;;;;;6285459;28;20033;-90
2021/01/30 05:39:49;;;;;;;12.70;3.83;;;6.90;88.10;;;;;;6286201;28;20043;-89
2021/01/30 05:42:59;;;;;;;12.20;3.53;;;7.20;87.20;;;;;;6278843;28;20052;-85
2021/01/30 05:46:00;;;;;;;13.13;4.35;;;7.10;87.20;;;;;;6295228;28;20078;-90
2021/01/30 05:49:04;;;;;;;17.83;3.60;;;7.20;88.10;;;;;;6261756;28;20443;-87
2021/01/30 05:52:10;;;;;;;14.35;4.13;;;7.10;87.40;;;;;;6261683;28;20486;-91
2021/01/30 05:55:27;;;;;;;14.48;3.35;;;7.10;88.10;;;;;;6261797;28;20052;-86
2021/01/30 05:58:34;;;;;;;14.95;3.58;;;7.10;87.00;;;;;;6295272;28;20028;-87
2021/01/30 06:01:35;;;;;;;15.52;3.80;;;7.10;88.40;;;;;;6261848;28;20588;-86
2021/01/30 06:04:35;;;;;;;13.52;5.00;;;7.10;89.10;;;;;;6261440;28;20035;-86
2021/01/30 06:07:37;;;;;;;13.80;3.70;;;7.10;87.00;;;;;;6277835;28;20036;-93
2021/01/30 06:10:37;;;;;;;14.05;3.97;;;7.10;87.30;;;;;;6261186;28;20040;-86
2021/01/30 06:13:58;;;;;;;19.98;4.15;;;7.20;86.70;;;;;;6261055;28;20074;-88
2021/01/30 06:16:59;;;;;;;18.85;4.18;;;7.30;84.90;;;;;;6261531;28;20028;-89
2021/01/30 06:20:24;;;;;;;18.95;3.80;;;7.30;86.10;;;;;;6260041;28;20072;-89
2021/01/30 06:23:24;;;;;;;11.20;3.17;;;7.20;85.30;;;;;;6261757;28;20025;-86
2021/01/30 06:26:25;;;;;;;11.55;3.40;;;7.40;85.80;;;;;;6260278;28;20088;-90
2021/01/30 06:29:45;;;;;;;14.90;4.20;;;7.30;86.20;;;;;;6260847;28;20028;-85
2021/01/30 06:32:47;;;;;;;12.65;3.78;;;7.30;84.00;;;;;;6261127;28;20453;-88
2021/01/30 06:35:48;;;;;;;15.23;4.90;;;7.40;84.50;;;;;;6261027;28;20024;-89
2021/01/30 06:38:56;;;;;;;17.42;4.88;;;7.40;85.00;;;;;;6260573;28;20028;-89
2021/01/30 06:41:59;;;;;;;18.67;5.25;;;7.40;85.40;;;;;;6260483;28;20079;-88
2021/01/30 06:45:05;;;;;;;13.77;4.18;;;7.40;85.70;;;;;;6260665;28;20036;-87
2021/01/30 06:48:09;;;;;;;12.18;4.78;;;7.50;85.30;;;;;;6260809;28;20115;-91
2021/01/30 06:51:28;;;;;;;13.75;3.80;;;7.40;85.70;;;;;;6261249;28;20035;-88
2021/01/30 06:54:29;;;;;;;19.58;5.22;;;7.40;87.10;;;;;;6293551;28;20119;-87
2021/01/30 06:57:30;;;;;;;16.90;4.75;;;7.40;86.70;;;;;;6259730;28;20040;-84
2021/01/30 07:00:32;;;;;;;11.32;3.58;;;7.40;86.60;;;;;;6259856;28;20086;-86
2021/01/30 07:03:55;;;;;;;13.07;4.13;;;7.40;98.10;;;;;;6259849;28;20036;-85
2021/01/30 07:07:13;;;;;;;14.52;4.10;;;7.40;99.90;;;;;;6276246;28;20270;-80
2021/01/30 07:10:29;;;;;;;6.75;2.88;;;7.40;99.70;;;;;;6277132;28;20070;-84
2021/01/30 07:13:42;;;;;;;13.65;4.00;;;7.50;86.40;;;;;;6288798;28;20077;-83
2021/01/30 07:16:56;;;;;;;12.43;3.13;;;7.50;86.80;;;;;;6274079;28;20537;-84
2021/01/30 07:20:29;;;;;;;16.70;4.50;;;7.50;86.30;;;;;;6259179;28;20327;-87
2021/01/30 07:24:05;;;;;;;18.25;4.25;;;7.50;85.70;;;;;;6258195;28;20047;-82
2021/01/30 07:27:11;;;;;;;24.98;3.95;;;7.60;86.50;;;;;;6291252;28;20028;-80
2021/01/30 07:30:44;;;;;;;13.73;4.13;;;8.20;95.80;;;;;;6291411;28;20472;-81
2021/01/30 07:34:05;;;;;;;21.27;4.77;;;8.80;87.60;;;;;;6238790;28;20470;-80
2021/01/30 07:37:20;;;;;;;15.90;3.83;;;8.80;92.10;;;;;;6291837;28;20028;-80
2021/01/30 07:40:54;;;;;;;14.52;3.75;;;8.70;84.00;;;;;;6274536;28;20067;-82
2021/01/30 07:44:26;;;;;;;17.63;3.72;;;8.50;83.00;;;;;;6289214;28;20045;-78
2021/01/30 07:48:04;;;;;;;13.35;4.32;;;8.40;84.70;;;;;;6273525;28;20099;-78
2021/01/30 07:51:08;;;;;;;17.00;3.88;;;8.20;84.30;;;;;;6273386;28;20036;-79
2021/01/30 07:54:09;;;;;;;106.32;53.40;;;8.10;87.70;;;;;;6269763;28;20024;-79
2021/01/30 07:57:22;;;;;;;118.80;86.90;;;8.10;88.30;;;;;;6272535;28;20098;-79
2021/01/30 08:00:25;;;;;;;29.13;17.05;;;8.00;88.40;;;;;;6290099;28;20128;-79
2021/01/30 08:03:49;;;;;;;15.80;6.30;;;8.00;88.90;;;;;;6286929;28;20028;-78
2021/01/30 08:07:12;;;;;;;10.65;3.80;;;7.60;96.70;;;;;;6231131;28;20056;-80
2021/01/30 08:10:13;;;;;;;14.73;3.97;;;8.00;96.70;;;;;;6291202;28;20024;-79
2021/01/30 08:13:22;;;;;;;21.48;6.70;;;7.80;93.50;;;;;;6287912;28;20035;-80
2021/01/30 08:16:55;;;;;;;14.70;5.85;;;8.00;93.80;;;;;;6287658;28;20033;-81
2021/01/30 08:19:57;;;;;;;;;;;8.10;94.90;;;;;;6243452;28;20036;-81
2021/01/30 08:23:13;;;;;;;12.88;3.00;;;7.90;89.40;;;;;;6289990;28;19912;-82
2021/01/30 08:26:28;;;;;;;15.18;4.28;;;8.00;82.80;;;;;;6292115;28;20482;-77
2021/01/30 08:29:35;;;;;;;16.08;4.43;;;8.00;84.60;;;;;;6290377;28;20021;-79
2021/01/30 08:32:38;;;;;;;16.58;5.60;;;7.90;85.50;;;;;;6290760;28;20033;-78
2021/01/30 08:35:40;;;;;;;18.38;5.57;;;7.90;90.00;;;;;;6288739;28;20051;-80
2021/01/30 08:38:40;;;;;;;14.57;5.93;;;7.90;90.30;;;;;;6288260;28;20055;-78
2021/01/30 08:41:43;;;;;;;15.18;4.53;;;7.80;90.90;;;;;;6289264;28;20403;-79
2021/01/30 08:44:53;;;;;;;16.58;5.15;;;7.70;90.60;;;;;;6274813;28;20067;-80
2021/01/30 08:47:54;;;;;;;20.20;7.28;;;7.70;91.60;;;;;;6294539;28;20077;-79
2021/01/30 08:50:56;;;;;;;18.60;7.45;;;7.60;92.10;;;;;;6295792;28;20024;-79
2021/01/30 08:53:58;;;;;;;17.23;10.73;;;7.60;92.30;;;;;;6258885;28;20565;-81
2021/01/30 08:56:58;;;;;;;12.60;4.28;;;7.60;92.10;;;;;;6278345;28;20035;-81
2021/01/30 09:00:04;;;;;;;18.17;5.00;;;7.70;99.90;;;;;;6276919;28;20064;-79
2021/01/30 09:03:05;;;;;;;16.00;4.93;;;7.40;99.90;;;;;;6277098;28;20039;-79
2021/01/30 09:06:07;;;;;;;11.32;4.15;;;7.60;97.90;;;;;;6278505;28;20029;-82
2021/01/30 09:09:18;;;;;;;16.23;4.20;;;7.70;98.40;;;;;;6261396;28;20075;-81
2021/01/30 09:12:58;;;;;;;14.77;4.10;;;7.90;99.90;;;;;;6260549;28;20513;-81
2021/01/30 09:15:59;;;;;;;27.10;7.15;;;;;;;;;;6293316;28;20028;-82
2021/01/30 09:19:00;;;;;;;15.80;5.57;;;;;;;;;;6290235;28;20504;-80
2021/01/30 09:22:24;;;;;;;16.83;9.27;;;7.30;98.40;;;;;;6294433;28;20029;-82
2021/01/30 09:25:41;;;;;;;34.22;16.67;;;7.40;99.90;;;;;;6294910;28;20036;-79
2021/01/30 09:28:42;;;;;;;18.98;6.50;;;7.70;93.40;;;;;;6294900;28;20028;-81
2021/01/30 09:31:42;;;;;;;22.27;8.82;;;7.70;93.90;;;;;;6276873;28;20036;-84
2021/01/30 09:34:58;;;;;;;23.33;9.27;;;7.60;93.40;;;;;;6275312;28;20123;-84
2021/01/30 09:37:59;;;;;;;15.95;5.30;;;7.70;91.50;;;;;;6277166;28;20033;-82
2021/01/30 09:41:06;;;;;;;15.98;3.83;;;7.70;92.60;;;;;;6274550;28;20125;-83
2021/01/30 09:44:22;;;;;;;11.07;3.42;;;7.80;92.40;;;;;;6275785;28;20037;-82
2021/01/30 09:47:23;;;;;;;16.38;4.82;;;7.90;91.30;;;;;;6292900;28;20481;-85
2021/01/30 09:50:32;;;;;;;14.13;4.05;;;7.90;92.80;;;;;;6275133;28;20033;-81
2021/01/30 09:53:42;;;;;;;13.05;5.90;;;8.00;92.70;;;;;;6275542;28;20174;-82
2021/01/30 09:56:43;;;;;;;15.00;7.57;;;8.10;91.30;;;;;;6277861;28;20040;-84
2021/01/30 09:59:44;;;;;;;19.67;7.00;;;8.10;92.70;;;;;;6260535;28;20024;-85
2021/01/30 10:02:44;;;;;;;11.32;5.70;;;8.20;92.40;;;;;;6260080;28;20040;-84
2021/01/30 10:05:46;;;;;;;276.58;29.85;;;;;;;;;;6260360;28;20048;-85
2021/01/30 10:08:46;;;;;;;10.13;4.43;;;8.30;91.80;;;;;;6275829;28;20119;-84
2021/01/30 10:11:54;;;;;;;15.95;6.88;;;8.20;92.70;;;;;;6272613;28;20074;-84
2021/01/30 10:14:56;;;;;;;15.95;7.13;;;8.10;92.40;;;;;;6276501;28;20050;-83
2021/01/30 10:18:06;;;;;;;7.63;2.90;;;8.20;91.50;;;;;;6276748;28;20111;-84
2021/01/30 10:21:08;;;;;;;16.73;6.28;;;8.20;88.30;;;;;;6277123;28;20174;-84
2021/01/30 10:24:19;;;;;;;113.37;9.53;;;8.30;91.20;;;;;;6290679;28;20024;-80
2021/01/30 10:27:26;;;;;;;7.43;2.22;;;8.40;89.90;;;;;;6293140;28;20060;-80
2021/01/30 10:30:26;;;;;;;6.70;2.35;;;8.60;92.70;;;;;;6277992;28;20023;-90
2021/01/30 10:33:27;;;;;;;8.30;2.50;;;9.30;81.30;;;;;;6261190;28;20024;-92
2021/01/30 10:36:29;;;;;;;7.07;2.55;;;8.70;92.70;;;;;;6261062;28;20066;-91
2021/01/30 10:39:54;;;;;;;5.35;2.35;;;8.60;77.40;;;;;;6262318;28;20050;-91
2021/01/30 10:43:34;;;;;;;8.25;2.65;;;8.60;79.10;;;;;;6278157;28;20102;-92
2021/01/30 10:46:44;;;;;;;10.10;4.13;;;8.50;93.10;;;;;;6279411;28;20036;-87
2021/01/30 10:50:26;;;;;;;7.15;3.47;;;8.50;81.30;;;;;;6259885;28;20028;-90
2021/01/30 10:53:49;;;;;;;8.73;3.97;;;8.30;90.90;;;;;;6281615;28;20044;-90
2021/01/30 10:57:18;;;;;;;8.52;2.60;;;8.10;77.20;;;;;;6268633;28;20058;-94
2021/01/30 11:00:29;;;;;;;9.80;2.33;;;7.90;92.10;;;;;;6293157;28;20070;-87
2021/01/30 11:03:50;;;;;;;4.07;2.33;;;7.90;92.00;;;;;;6258064;28;20044;-86
2021/01/30 11:06:51;;;;;;;6.20;2.17;;;7.80;83.10;;;;;;6258267;28;20055;-85
2021/01/30 11:09:54;;;;;;;5.50;2.42;;;7.70;84.90;;;;;;6258271;28;20020;-86
2021/01/30 11:13:38;;;;;;;6.15;2.63;;;7.70;87.00;;;;;;6256682;28;20078;-88
2021/01/30 11:16:39;;;;;;;;;;;7.60;92.60;;;;;;6207142;28;20120;-87
2021/01/30 11:19:41;;;;;;;7.00;2.33;;;7.70;93.10;;;;;;6221629;28;20231;-87
2021/01/30 11:22:49;;;;;;;;;;;7.70;93.20;;;;;;6290887;28;20071;-85
2021/01/30 11:25:52;;;;;;;8.32;3.60;;;;;;;;;;6292223;28;19912;-87
2021/01/30 11:28:57;;;;;;;12.75;5.20;;;;;;;;;;6276678;28;20017;-90
2021/01/30 11:31:58;;;;;;;8.82;2.70;;;;;;;;;;6277867;28;20025;-89
2021/01/30 11:35:03;;;;;;;10.25;5.70;;;7.60;95.60;;;;;;6292182;28;20023;-88
2021/01/30 11:38:24;;;;;;;8.60;4.07;;;7.40;96.10;;;;;;6265081;28;20016;-91
2021/01/30 11:41:25;;;;;;;6.55;4.75;;;7.30;99.90;;;;;;6257163;28;20142;-88
2021/01/30 11:44:26;;;;;;;6.22;3.67;;;7.50;99.90;;;;;;6260863;28;20352;-89
2021/01/30 11:47:27;;;;;;;7.82;4.30;;;;;;;;;;6259129;28;20052;-86
2021/01/30 11:50:28;;;;;;;9.15;3.15;;;;;;;;;;6275404;28;20561;-84
2021/01/30 11:53:30;;;;;;;7.47;2.88;;;;;;;;;;6275414;28;20043;-86
2021/01/30 11:56:31;;;;;;;6.63;2.65;;;;;;;;;;6275434;28;20029;-87
2021/01/30 11:59:32;;;;;;;5.65;2.80;;;;;;;;;;6272574;28;20043;-88
2021/01/30 12:02:35;;;;;;;7.80;3.95;;;7.00;98.70;;;;;;6271323;28;20521;-88
2021/01/30 12:05:36;;;;;;;4.85;3.60;;;;;;;;;;6258736;28;20021;-89
2021/01/30 12:08:37;;;;;;;8.43;2.78;;;;;;;;;;6274161;28;20040;-83
2021/01/30 12:11:38;;;;;;;8.15;2.80;;;;;;;;;;6289764;28;20027;-88
2021/01/30 12:14:39;;;;;;;6.65;3.10;;;;;;;;;;6274911;28;20029;-88
2021/01/30 12:17:45;;;;;;;8.20;2.88;;;6.40;99.30;;;;;;6274561;28;20111;-88
2021/01/30 12:20:46;;;;;;;5.25;2.70;;;;;;;;;;6258355;28;20123;-87
2021/01/30 12:23:47;;;;;;;6.30;2.58;;;;;;;;;;6279903;28;20111;-87
2021/01/30 12:26:48;;;;;;;7.72;2.53;;;;;;;;;;6278208;28;20036;-87
2021/01/30 12:29:52;;;;;;;6.05;2.95;;;6.50;98.60;;;;;;6280709;28;20032;-90
2021/01/30 12:32:53;;;;;;;5.15;2.60;;;6.10;99.90;;;;;;6263298;28;20017;-86
2021/01/30 12:35:54;;;;;;;5.32;3.03;;;6.40;99.30;;;;;;6275823;28;20060;-89
2021/01/30 12:38:55;;;;;;;3.78;2.70;;;;;;;;;;6257908;28;20055;-88
2021/01/30 12:41:55;;;;;;;5.38;2.28;;;6.50;99.30;;;;;;6278531;28;20532;-88
2021/01/30 12:44:56;;;;;;;5.82;3.50;;;;;;;;;;6262097;28;20032;-89
2021/01/30 12:47:58;;;;;;;8.27;2.72;;;6.50;92.60;;;;;;6277920;28;20488;-89
2021/01/30 12:50:58;;;;;;;5.20;2.70;;;6.50;93.80;;;;;;6260959;28;20051;-89
2021/01/30 12:53:59;;;;;;;3.83;2.30;;;;;;;;;;6263319;28;20029;-88
2021/01/30 12:57:00;;;;;;;7.20;4.22;;;6.50;92.50;;;;;;6279639;28;20025;-84
2021/01/30 13:00:04;;;;;;;7.70;3.75;;;7.20;99.90;;;;;;6277259;28;20506;-84
2021/01/30 13:03:05;;;;;;;7.10;5.88;;;7.30;99.80;;;;;;6279377;28;20029;-84
2021/01/30 13:06:06;;;;;;;6.40;5.20;;;;;;;;;;6279981;28;20489;-91
2021/01/30 13:09:07;;;;;;;7.90;3.47;;;7.20;99.90;;;;;;6278220;28;20037;-88
2021/01/30 13:12:10;;;;;;;4.55;2.83;;;;;;;;;;6263244;28;20105;-89
2021/01/30 13:19:20;;;;;;;5.72;3.60;;;6.70;93.50;;;;;;6245763;28;20046;-90
2021/01/30 13:29:42;;;;;;;4.45;3.10;;;6.70;94.20;;;;;;6171144;28;20022;-91
2021/01/30 13:37:00;;;;;;;5.65;2.97;;;;;;;;;;6145033;28;20043;-92
2021/01/30 13:48:53;;;;;;;5.72;3.63;;;6.60;95.80;;;;;;6151943;28;20452;-91
2021/01/30 13:51:54;;;;;;;10.82;8.45;;;;;;;;;;6202572;28;20026;-87
2021/01/30 13:54:55;;;;;;;5.68;4.40;;;;;;;;;;6243028;28;20182;-90
2021/01/30 13:57:57;;;;;;;5.40;4.18;;;6.70;95.80;;;;;;6262175;28;20466;-85
2021/01/30 14:01:07;;;;;;;5.80;3.03;;;6.60;99.90;;;;;;6244534;28;20054;-89
2021/01/30 14:04:08;;;;;;;5.07;3.08;;;7.60;98.30;;;;;;6243917;28;20779;-86
2021/01/30 14:07:08;;;;;;;5.60;4.55;;;6.80;97.40;;;;;;6243335;28;20029;-88
2021/01/30 14:10:10;;;;;;;4.90;3.75;;;6.80;99.90;;;;;;6244002;28;20039;-86
2021/01/30 14:13:11;;;;;;;10.70;8.77;;;7.00;97.40;;;;;;6241784;28;20028;-85
2021/01/30 14:16:12;;;;;;;5.57;3.83;;;;;;;;;;6240720;28;20079;-86
2021/01/30 14:19:13;;;;;;;5.75;4.35;;;7.00;95.90;;;;;;6256677;28;20040;-86
2021/01/30 14:22:13;;;;;;;8.85;6.43;;;6.80;97.40;;;;;;6241469;28;20036;-84
2021/01/30 14:25:14;;;;;;;9.38;5.25;;;7.10;97.50;;;;;;6242404;28;20091;-84
2021/01/30 14:28:15;;;;;;;9.57;6.93;;;7.10;97.40;;;;;;6243404;28;20068;-86
2021/01/30 14:31:19;;;;;;;15.05;11.07;;;7.20;97.50;;;;;;6240837;28;20028;-82
2021/01/30 14:34:20;;;;;;;7.07;5.80;;;7.00;97.40;;;;;;6242140;28;20033;-85
2021/01/30 14:37:21;;;;;;;7.30;4.43;;;7.40;97.20;;;;;;6241172;28;20425;-84
2021/01/30 14:40:33;;;;;;;6.50;4.15;;;7.40;97.10;;;;;;6241430;28;20047;-85
2021/01/30 14:43:34;;;;;;;5.18;4.43;;;8.00;99.90;;;;;;6226188;28;20056;-83
2021/01/30 14:46:38;;;;;;;5.07;4.57;;;7.90;96.90;;;;;;6251081;28;20025;-83
2021/01/30 14:49:39;;;;;;;3.78;3.05;;;7.70;95.20;;;;;;6233586;28;20016;-83
2021/01/30 14:52:39;;;;;;;4.10;2.83;;;7.80;96.50;;;;;;6217983;28;20048;-83
2021/01/30 14:55:40;;;;;;;3.45;2.60;;;8.00;96.80;;;;;;6234703;28;20048;-84
2021/01/30 14:58:41;;;;;;;4.68;2.92;;;7.90;97.10;;;;;;6218015;28;20356;-84
2021/01/30 15:01:42;;;;;;;3.83;2.80;;;8.00;97.40;;;;;;6250586;28;20033;-82
2021/01/30 15:04:42;;;;;;;5.88;3.53;;;8.10;97.20;;;;;;6234415;28;20060;-83
2021/01/30 15:07:43;;;;;;;3.78;2.70;;;8.70;97.40;;;;;;6234626;28;20029;-83
2021/01/30 15:10:44;;;;;;;3.63;2.33;;;8.10;97.10;;;;;;6234590;28;20033;-83
2021/01/30 15:13:44;;;;;;;3.40;2.60;;;8.20;97.00;;;;;;6250528;28;20451;-83
2021/01/30 15:16:47;;;;;;;2.22;1.98;;;8.20;96.80;;;;;;6248056;28;20028;-83
2021/01/30 15:19:47;;;;;;;;;;;8.30;96.40;;;;;;6220263;28;20048;-84
2021/01/30 15:22:48;;;;;;;6.18;4.72;;;8.40;96.70;;;;;;6252186;28;19967;-84
2021/01/30 15:25:49;;;;;;;2.63;2.30;;;8.30;96.20;;;;;;6219735;28;20037;-85
2021/01/30 15:28:49;;;;;;;3.88;2.42;;;8.30;96.10;;;;;;6223141;28;20112;-84
2021/01/30 15:31:51;;;;;;;2.42;2.00;;;7.90;96.20;;;;;;6234670;28;20025;-86
2021/01/30 15:34:51;;;;;;;2.60;1.92;;;8.60;96.20;;;;;;6217929;28;20064;-83
2021/01/30 15:37:52;;;;;;;2.80;2.50;;;8.50;96.00;;;;;;6232953;28;20029;-83
2021/01/30 15:40:53;;;;;;;2.13;1.90;;;8.30;96.30;;;;;;6216199;28;20044;-86
2021/01/30 15:43:53;;;;;;;2.53;2.17;;;8.40;96.20;;;;;;6244481;28;20045;-82
2021/01/30 15:46:54;;;;;;;2.55;2.30;;;8.00;95.60;;;;;;6265952;28;20028;-87
2021/01/30 15:49:55;;;;;;;3.47;2.00;;;8.50;95.80;;;;;;6250656;28;20604;-85
2021/01/30 15:52:56;;;;;;;6.07;2.50;;;;;;;;;;6250602;28;20538;-88
2021/01/30 15:55:59;;;;;;;2.67;2.13;;;8.50;94.10;;;;;;6250940;28;20112;-87
2021/01/30 15:59:00;;;;;;;2.30;1.50;;;8.60;99.90;;;;;;6268670;28;20079;-91
2021/01/30 16:03:13;;;;;;;1.70;1.60;;;8.40;93.90;;;;;;6251832;28;20063;-91
2021/01/30 16:06:14;;;;;;;3.13;2.58;;;;;;;;;;6227556;28;20033;-91
2021/01/30 16:09:15;;;;;;;3.58;2.90;;;;;;;;;;6251725;28;20112;-91
2021/01/30 16:15:58;;;;;;;1.20;1.17;;;8.50;99.90;;;;;;6269786;28;20029;-89
2021/01/30 16:19:04;;;;;;;2.83;1.50;;;8.70;99.90;;;;;;6268345;28;20048;-88
2021/01/30 16:22:05;;;;;;;1.52;1.40;;;8.50;99.90;;;;;;6250523;28;20779;-83
2021/01/30 16:25:08;;;;;;;1.40;1.30;;;8.90;99.90;;;;;;6239535;28;20021;-89
2021/01/30 16:28:09;;;;;;;1.33;1.23;;;8.70;99.90;;;;;;6233452;28;20029;-82
2021/01/30 16:31:09;;;;;;;0.98;0.98;;;8.60;99.90;;;;;;6250071;28;20120;-87
2021/01/30 16:34:10;;;;;;;5.07;2.92;;;8.50;99.90;;;;;;6250841;28;20025;-86
2021/01/30 16:37:12;;;;;;;2.20;1.88;;;8.40;99.90;;;;;;6250237;28;20033;-86
2021/01/30 16:40:15;;;;;;;3.13;2.35;;;8.40;99.90;;;;;;6249271;28;20033;-86
2021/01/30 16:43:16;;;;;;;7.03;5.85;;;;;;;;;;6273727;28;20143;-87
2021/01/30 16:46:17;;;;;;;2.80;2.50;;;;;;;;;;6257704;28;20037;-85
2021/01/30 16:49:18;;;;;;;2.53;2.33;;;;;;;;;;6256674;28;20039;-88
2021/01/30 16:52:18;;;;;;;2.53;2.20;;;8.80;99.90;;;;;;6258075;28;20029;-86
2021/01/30 16:55:20;;;;;;;2.65;2.00;;;;;;;;;;6240417;28;20066;-86
2021/01/30 16:58:21;;;;;;;3.55;2.55;;;;;;;;;;6256249;28;20025;-85
2021/01/30 17:01:21;;;;;;;3.28;2.90;;;8.60;99.90;;;;;;6257917;28;20385;-84